Hebei Shijiazhuang — VRIS2 — position and weather

sailwx.info

Track history (hours):
 
Tides and Currents Weather Stations Pressure Air Temp Water Temp Dewpoint Dewpoint Depression Visibility Wind Speed Wind Dir Waves Ship Positions

Hebei Shijiazhuang

Last reported at 2015-Jan-30 08:30 UTC. Time now 2015-Jan-30 09:30 UTC.
Position S 32°53' E 151°46'.

Length 235 m.

Type: Cargo ship. MMSI: 477899000.

Date/timePositionNaut miles runAvg speedWind from/ knotsBaromVisibWave heightAir tempDewpointWater temp
2015-Jan-30 08:30S 32°53' E 151°46'0 0.0
2015-Jan-30 07:30S 32°53' E 151°46'0 0.0
2015-Jan-30 06:33S 32°53' E 151°46'0 0.0
2015-Jan-30 05:30S 32°53' E 151°46'0 0.0
2015-Jan-30 04:33S 32°53' E 151°46'0 0.0
2015-Jan-30 03:24S 32°53' E 151°46'0 0.0
2015-Jan-30 02:30S 32°53' E 151°46'0 0.0
2015-Jan-30 01:33S 32°53' E 151°46'0 0.0
2015-Jan-30 00:30S 32°53' E 151°46'0 0.0
2015-Jan-29 23:30S 32°53' E 151°46'0 0.0
2015-Jan-29 22:30S 32°53' E 151°46'0 0.0
2015-Jan-29 21:30S 32°53' E 151°46'0 0.0
2015-Jan-29 20:33S 32°53' E 151°46'0 0.0
2015-Jan-29 19:33S 32°53' E 151°46'0 0.0
2015-Jan-29 18:33S 32°53' E 151°46'0 0.0
2015-Jan-29 17:30S 32°53' E 151°46'0 0.0
2015-Jan-29 16:33S 32°53' E 151°46'0 0.0
2015-Jan-29 15:30S 32°53' E 151°46'0 0.0
2015-Jan-29 14:33S 32°53' E 151°46'0 0.0
2015-Jan-29 13:33S 32°53' E 151°46'0 0.0
2015-Jan-29 12:33S 32°53' E 151°46'0 0.0
2015-Jan-29 11:33S 32°53' E 151°46'0 0.0
2015-Jan-29 10:33S 32°53' E 151°46'0 0.0
2015-Jan-29 09:33S 32°53' E 151°46'0 0.0
2015-Jan-29 08:30S 32°53' E 151°46'0 0.0
2015-Jan-29 07:30S 32°53' E 151°46'1 1.4
2015-Jan-29 06:34S 32°55' E 151°46'6 5.9
2015-Jan-29 05:34S 32°59' E 151°51'  
2015-Jan-25 09:31S 33°14' E 151°40'0 0.1
2015-Jan-25 08:31S 33°14' E 151°40'0 0.0
2015-Jan-24 22:13S 33°14' E 151°40'0 0.0
2015-Jan-24 05:25S 33°14' E 151°40'0 0.0
2015-Jan-24 04:31S 33°14' E 151°40'0 0.0
2015-Jan-24 03:31S 33°14' E 151°40'2 0.5
2015-Jan-23 23:22S 33°15' E 151°41'6 7.8
2015-Jan-23 22:33S 33°12' E 151°48'1111.4
2015-Jan-23 21:33S 33°07' E 151°60'9 9.0
2015-Jan-23 20:33S 33°03' E 152°10'1212.0
2015-Jan-23 19:33S 32°57' E 152°22'1313.0
2015-Jan-23 18:33S 32°46' E 152°30'1413.7
2015-Jan-23 17:33S 32°34' E 152°38'31611.6
2015-Jan-22 14:16S 27°30' E 154°17'912.3
2015-Jan-22 13:31S 27°21' E 154°15'1312.7
2015-Jan-22 12:31S 27°08' E 154°12'1413.3
2015-Jan-22 11:26S 26°54' E 154°09'4013.4
2015-Jan-22 08:26S 26°14' E 154°11'  
Track history (hours):
 
Tides and Currents Weather Stations Pressure Air Temp Water Temp Dewpoint Dewpoint Depression Visibility Wind Speed Wind Dir Waves Ship Positions

Hebei Shijiazhuang

Last reported at 2015-Jan-30 08:30 UTC. Time now 2015-Jan-30 09:30 UTC.
Position S 32°53' E 151°46'.

Length 235 m.

Type: Cargo ship. MMSI: 477899000.

Date/timePositionNaut miles runAvg speedWind from/ knotsBaromVisibWave heightAir tempDewpointWater temp
2015-Jan-30 08:30S 32°53' E 151°46'0 0.0
2015-Jan-30 07:30S 32°53' E 151°46'0 0.0
2015-Jan-30 06:33S 32°53' E 151°46'0 0.0
2015-Jan-30 05:30S 32°53' E 151°46'0 0.0
2015-Jan-30 04:33S 32°53' E 151°46'0 0.0
2015-Jan-30 03:24S 32°53' E 151°46'0 0.0
2015-Jan-30 02:30S 32°53' E 151°46'0 0.0
2015-Jan-30 01:33S 32°53' E 151°46'0 0.0
2015-Jan-30 00:30S 32°53' E 151°46'0 0.0
2015-Jan-29 23:30S 32°53' E 151°46'0 0.0
2015-Jan-29 22:30S 32°53' E 151°46'0 0.0
2015-Jan-29 21:30S 32°53' E 151°46'0 0.0
2015-Jan-29 20:33S 32°53' E 151°46'0 0.0
2015-Jan-29 19:33S 32°53' E 151°46'0 0.0
2015-Jan-29 18:33S 32°53' E 151°46'0 0.0
2015-Jan-29 17:30S 32°53' E 151°46'0 0.0
2015-Jan-29 16:33S 32°53' E 151°46'0 0.0
2015-Jan-29 15:30S 32°53' E 151°46'0 0.0
2015-Jan-29 14:33S 32°53' E 151°46'0 0.0
2015-Jan-29 13:33S 32°53' E 151°46'0 0.0
2015-Jan-29 12:33S 32°53' E 151°46'0 0.0
2015-Jan-29 11:33S 32°53' E 151°46'0 0.0
2015-Jan-29 10:33S 32°53' E 151°46'0 0.0
2015-Jan-29 09:33S 32°53' E 151°46'0 0.0
2015-Jan-29 08:30S 32°53' E 151°46'0 0.0
2015-Jan-29 07:30S 32°53' E 151°46'1 1.4
2015-Jan-29 06:34S 32°55' E 151°46'6 5.9
2015-Jan-29 05:34S 32°59' E 151°51'  
2015-Jan-25 09:31S 33°14' E 151°40'0 0.1
2015-Jan-25 08:31S 33°14' E 151°40'0 0.0
2015-Jan-24 22:13S 33°14' E 151°40'0 0.0
2015-Jan-24 05:25S 33°14' E 151°40'0 0.0
2015-Jan-24 04:31S 33°14' E 151°40'0 0.0
2015-Jan-24 03:31S 33°14' E 151°40'2 0.5
2015-Jan-23 23:22S 33°15' E 151°41'6 7.8
2015-Jan-23 22:33S 33°12' E 151°48'1111.4
2015-Jan-23 21:33S 33°07' E 151°60'9 9.0
2015-Jan-23 20:33S 33°03' E 152°10'1212.0
2015-Jan-23 19:33S 32°57' E 152°22'1313.0
2015-Jan-23 18:33S 32°46' E 152°30'1413.7
2015-Jan-23 17:33S 32°34' E 152°38'31611.6
2015-Jan-22 14:16S 27°30' E 154°17'912.3
2015-Jan-22 13:31S 27°21' E 154°15'1312.7
2015-Jan-22 12:31S 27°08' E 154°12'1413.3
2015-Jan-22 11:26S 26°54' E 154°09'4013.4
2015-Jan-22 08:26S 26°14' E 154°11'  

Dump ship's entire track history